Time,TemperatureF,DewpointF,PressureIn,WindDirection,WindDirectionDegrees,WindSpeedMPH,WindSpeedGustMPH,Humidity,HourlyPrecipIn,Conditions,Clouds,dailyrainin,SolarRadiationWatts/m^2,SoftwareType,DateUTC
2013-02-19 00:02:00,22.3,9.7,30.06,WNW,292,4.5,6.4,58,0.00,CLR,SCT,0.00,0.0,WeatherDisplay:10.37,2013-02-19 06:02:00,
2013-02-19 00:07:00,22.5,9.5,30.06,NNE,22,6.7,10.4,57,0.00,CLR,SCT,0.00,0.0,WeatherDisplay:10.37,2013-02-19 06:07:00,
2013-02-19 00:12:00,22.3,8.9,30.06,NNW,338,4.9,8.1,56,0.00,CLR,SCT,0.00,0.0,WeatherDisplay:10.37,2013-02-19 06:12:00,
2013-02-19 00:17:00,22.1,8.8,30.06,NNE,22,4.7,5.8,56,0.00,CLR,SCT,0.00,0.0,WeatherDisplay:10.37,2013-02-19 06:17:00,
2013-02-19 00:22:00,21.7,8.0,30.06,WNW,292,6.9,10.5,55,0.00,CLR,SCT,0.00,0.0,WeatherDisplay:10.37,2013-02-19 06:22:00,
2013-02-19 00:28:00,21.2,7.5,30.06,SW,225,7.8,12.7,55,0.00,CLR,SCT,0.00,0.0,WeatherDisplay:10.37,2013-02-19 06:28:00,
2013-02-19 00:33:00,20.8,6.8,30.06,North,0,8.5,12.7,54,0.00,CLR,SCT,0.00,0.0,WeatherDisplay:10.37,2013-02-19 06:33:00,
2013-02-19 00:38:00,20.7,6.6,30.06,NNW,338,6.0,11.5,54,0.00,CLR,SCT,0.00,0.0,WeatherDisplay:10.37,2013-02-19 06:38:00,
2013-02-19 00:43:00,20.1,5.7,30.06,West,270,6.9,12.7,53,0.00,CLR,SCT,0.00,0.0,WeatherDisplay:10.37,2013-02-19 06:43:00,
2013-02-19 00:48:00,19.8,5.4,30.06,East,90,7.4,11.5,53,0.00,CLR,SCT,0.00,0.0,WeatherDisplay:10.37,2013-02-19 06:48:00,
2013-02-19 00:53:00,19.4,5.0,30.06,NNE,22,6.4,13.8,53,0.00,CLR,SCT,0.00,0.0,WeatherDisplay:10.37,2013-02-19 06:53:00,
2013-02-19 00:58:00,19.0,4.3,30.06,West,270,6.2,9.2,52,0.00,CLR,SCT,0.00,0.0,WeatherDisplay:10.37,2013-02-19 06:58:00,
2013-02-19 01:03:00,18.5,3.4,30.03,WSW,248,6.2,8.1,51,0.00,CLR,SCT,0.00,0.0,WeatherDisplay:10.37,2013-02-19 07:03:00,
2013-02-19 01:08:00,18.1,3.0,30.03,ESE,112,3.6,5.8,51,0.00,CLR,SCT,0.00,0.0,WeatherDisplay:10.37,2013-02-19 07:08:00,
2013-02-19 01:13:00,17.8,2.3,30.03,North,0,4.5,5.8,50,0.00,CLR,SCT,0.00,0.0,WeatherDisplay:10.37,2013-02-19 07:13:00,
2013-02-19 01:18:00,17.6,2.5,30.09,North,0,6.2,10.4,51,0.00,CLR,SCT,0.00,0.0,WeatherDisplay:10.37,2013-02-19 07:18:00,
2013-02-19 01:23:00,17.2,2.2,30.09,NNW,338,5.6,8.1,51,0.00,CLR,SCT,0.00,0.0,WeatherDisplay:10.37,2013-02-19 07:23:00,
2013-02-19 01:28:00,16.9,1.8,30.09,North,0,6.7,11.5,51,0.00,CLR,SCT,0.00,0.0,WeatherDisplay:10.37,2013-02-19 07:28:00,
2013-02-19 01:33:00,16.9,2.3,30.09,WNW,292,10.0,10.7,52,0.00,CLR,SCT,0.00,0.0,WeatherDisplay:10.37,2013-02-19 07:33:00,
2013-02-19 01:38:00,16.7,1.7,30.09,North,0,9.8,12.7,51,0.00,CLR,SCT,0.00,0.0,WeatherDisplay:10.37,2013-02-19 07:38:00,
2013-02-19 01:43:00,16.5,1.9,30.09,ESE,112,4.9,12.5,52,0.00,CLR,SCT,0.00,0.0,WeatherDisplay:10.37,2013-02-19 07:43:00,
2013-02-19 01:48:00,16.2,2.0,30.09,North,0,6.2,6.9,53,0.00,CLR,SCT,0.00,0.0,WeatherDisplay:10.37,2013-02-19 07:48:00,
2013-02-19 01:54:00,16.0,1.8,30.09,WNW,292,6.4,13.8,53,0.00,CLR,SCT,0.00,0.0,WeatherDisplay:10.37,2013-02-19 07:54:00,
2013-02-19 01:59:00,16.0,1.8,30.09,NNW,338,7.4,12.7,53,0.00,CLR,SCT,0.00,0.0,WeatherDisplay:10.37,2013-02-19 07:59:00,
2013-02-19 02:04:00,15.8,2.1,30.09,SSE,158,6.0,10.4,54,0.00,CLR,SCT,0.00,0.0,WeatherDisplay:10.37,2013-02-19 08:04:00,
2013-02-19 02:09:00,15.4,1.3,30.09,WNW,292,7.4,13.8,53,0.00,CLR,SCT,0.00,0.0,WeatherDisplay:10.37,2013-02-19 08:09:00,
2013-02-19 02:15:00,15.4,1.3,30.09,NNW,332,8.0,15.0,53,0.00,CLR,SCT,0.00,0.0,WeatherDisplay:10.37,2013-02-19 08:15:00,
2013-02-19 02:20:00,15.3,1.6,30.09,West,270,4.9,9.2,54,0.00,CLR,SCT,0.00,0.0,WeatherDisplay:10.37,2013-02-19 08:20:00,
2013-02-19 02:25:00,15.1,1.8,30.09,West,270,6.4,8.1,55,0.00,CLR,SCT,0.00,0.0,WeatherDisplay:10.37,2013-02-19 08:25:00,
2013-02-19 02:30:00,14.9,1.6,30.09,North,0,5.4,5.9,55,0.00,CLR,SCT,0.00,0.0,WeatherDisplay:10.37,2013-02-19 08:30:00,
2013-02-19 02:35:00,14.7,1.5,30.12,West,270,4.5,10.4,55,0.00,CLR,SCT,0.00,0.0,WeatherDisplay:10.37,2013-02-19 08:35:00,
2013-02-19 02:40:00,14.4,1.5,30.12,WNW,292,4.3,9.2,56,0.00,CLR,SCT,0.00,0.0,WeatherDisplay:10.37,2013-02-19 08:40:00,
2013-02-19 02:45:00,14.2,0.9,30.12,WNW,292,7.8,9.2,55,0.00,CLR,SCT,0.00,0.0,WeatherDisplay:10.37,2013-02-19 08:45:00,
2013-02-19 02:50:00,14.0,1.2,30.12,NNW,338,7.1,11.5,56,0.00,CLR,SCT,0.00,0.0,WeatherDisplay:10.37,2013-02-19 08:50:00,
2013-02-19 02:55:00,13.8,1.0,30.12,NNW,338,6.4,10.9,56,0.00,CLR,SCT,0.00,0.0,WeatherDisplay:10.37,2013-02-19 08:55:00,
2013-02-19 03:00:00,13.5,0.7,30.12,ENE,68,6.7,9.2,56,0.00,CLR,SCT,0.00,0.0,WeatherDisplay:10.37,2013-02-19 09:00:00,
2013-02-19 03:05:00,13.5,0.7,30.12,NNW,338,7.1,8.1,56,0.00,CLR,SCT,0.00,0.0,WeatherDisplay:10.37,2013-02-19 09:05:00,
2013-02-19 03:10:00,13.3,0.5,30.12,WNW,292,7.1,10.4,56,0.00,CLR,SCT,0.00,0.0,WeatherDisplay:10.37,2013-02-19 09:10:00,
2013-02-19 03:15:00,13.1,0.3,30.12,WNW,292,9.0,15.0,56,0.00,CLR,SCT,0.00,0.0,WeatherDisplay:10.37,2013-02-19 09:15:00,
2013-02-19 03:20:00,13.1,0.3,30.12,WNW,292,6.4,8.1,56,0.00,CLR,SCT,0.00,0.0,WeatherDisplay:10.37,2013-02-19 09:20:00,
2013-02-19 03:25:00,12.9,0.2,30.12,NNW,338,6.7,10.7,56,0.00,CLR,SCT,0.00,0.0,WeatherDisplay:10.37,2013-02-19 09:25:00,
2013-02-19 03:30:00,12.7,0.0,30.12,SSW,202,6.9,9.2,56,0.00,CLR,SCT,0.00,0.0,WeatherDisplay:10.37,2013-02-19 09:30:00,
2013-02-19 03:35:00,12.6,-0.2,30.12,NNW,338,5.4,6.9,56,0.00,CLR,SCT,0.00,0.0,WeatherDisplay:10.37,2013-02-19 09:35:00,
2013-02-19 03:40:00,12.6,-0.2,30.12,ENE,68,4.5,9.2,56,0.00,CLR,SCT,0.00,0.0,WeatherDisplay:10.37,2013-02-19 09:40:00,
2013-02-19 03:45:00,12.4,-0.4,30.12,NW,315,6.7,8.1,56,0.00,CLR,SCT,0.00,0.0,WeatherDisplay:10.37,2013-02-19 09:45:00,
2013-02-19 03:50:00,12.2,-0.5,30.12,NNE,22,6.9,10.0,56,0.00,CLR,SCT,0.00,0.0,WeatherDisplay:10.37,2013-02-19 09:50:00,
2013-02-19 03:55:00,12.2,-0.5,30.12,WSW,248,4.3,6.4,56,0.00,CLR,SCT,0.00,0.0,WeatherDisplay:10.37,2013-02-19 09:55:00,
2013-02-19 04:01:00,12.0,-0.7,30.12,NW,315,6.4,7.8,56,0.00,CLR,SCT,0.00,0.0,WeatherDisplay:10.37,2013-02-19 10:01:00,
2013-02-19 04:06:00,11.8,-0.9,30.12,NNE,22,5.4,6.9,56,0.00,CLR,SCT,0.00,0.0,WeatherDisplay:10.37,2013-02-19 10:06:00,
2013-02-19 04:11:00,11.8,-0.9,30.12,NNW,338,4.9,8.1,56,0.00,CLR,SCT,0.00,0.0,WeatherDisplay:10.37,2013-02-19 10:11:00,
2013-02-19 04:16:00,11.7,-1.0,30.12,NNE,22,6.7,8.1,56,0.00,CLR,SCT,0.00,0.0,WeatherDisplay:10.37,2013-02-19 10:16:00,
2013-02-19 04:21:00,11.7,-1.0,30.12,NNW,338,6.7,10.4,56,0.00,CLR,SCT,0.00,0.0,WeatherDisplay:10.37,2013-02-19 10:21:00,
2013-02-19 04:26:00,11.7,-1.0,30.12,NNE,22,6.7,9.2,56,0.00,CLR,SCT,0.00,0.0,WeatherDisplay:10.37,2013-02-19 10:26:00,
2013-02-19 04:31:00,11.5,-1.2,30.12,WNW,292,5.6,10.4,56,0.00,CLR,SCT,0.00,0.0,WeatherDisplay:10.37,2013-02-19 10:31:00,
2013-02-19 04:36:00,11.3,-1.4,30.12,WNW,292,7.4,10.4,56,0.00,CLR,SCT,0.00,0.0,WeatherDisplay:10.37,2013-02-19 10:36:00,
2013-02-19 04:41:00,11.3,-1.4,30.12,WNW,292,6.9,10.4,56,0.00,CLR,SCT,0.00,0.0,WeatherDisplay:10.37,2013-02-19 10:41:00,
2013-02-19 04:47:00,11.1,-1.5,30.15,NNE,22,5.4,9.2,56,0.00,CLR,SCT,0.00,0.0,WeatherDisplay:10.37,2013-02-19 10:47:00,
2013-02-19 04:52:00,10.9,-1.7,30.15,WNW,292,4.9,7.1,56,0.00,CLR,SCT,0.00,0.0,WeatherDisplay:10.37,2013-02-19 10:52:00,
2013-02-19 04:57:00,10.8,-1.9,30.15,North,0,5.9,7.1,56,0.00,CLR,SCT,0.00,0.0,WeatherDisplay:10.37,2013-02-19 10:57:00,
2013-02-19 05:02:00,10.8,-1.9,30.15,North,0,4.5,8.1,56,0.00,CLR,SCT,0.00,0.0,WeatherDisplay:10.37,2013-02-19 11:02:00,
2013-02-19 05:07:00,10.6,-2.0,30.15,WNW,292,4.9,6.9,56,0.00,CLR,SCT,0.00,0.0,WeatherDisplay:10.37,2013-02-19 11:07:00,
2013-02-19 05:12:00,10.4,-2.2,30.15,WNW,292,4.5,5.8,56,0.00,CLR,SCT,0.00,0.0,WeatherDisplay:10.37,2013-02-19 11:12:00,
2013-02-19 05:17:00,10.2,-2.4,30.15,SSE,158,4.0,8.1,56,0.00,CLR,SCT,0.00,0.0,WeatherDisplay:10.37,2013-02-19 11:17:00,
2013-02-19 05:22:00,10.0,-2.6,30.15,ENE,68,3.3,5.8,56,0.00,CLR,SCT,0.00,0.0,WeatherDisplay:10.37,2013-02-19 11:22:00,
2013-02-19 05:27:00,9.9,-2.7,30.15,ENE,68,4.3,6.9,56,0.00,CLR,SCT,0.00,0.0,WeatherDisplay:10.37,2013-02-19 11:27:00,
2013-02-19 05:33:00,9.7,-2.9,30.15,West,270,6.0,10.4,56,0.00,CLR,SCT,0.00,0.0,WeatherDisplay:10.37,2013-02-19 11:33:00,
2013-02-19 05:38:00,9.7,-2.9,30.15,SE,135,4.3,9.2,56,0.00,CLR,SCT,0.00,0.0,WeatherDisplay:10.37,2013-02-19 11:38:00,
2013-02-19 05:43:00,9.5,-3.1,30.15,WNW,292,4.5,7.6,56,0.00,CLR,SCT,0.00,0.0,WeatherDisplay:10.37,2013-02-19 11:43:00,
2013-02-19 05:48:00,9.5,-3.1,30.12,NNE,22,8.7,8.7,56,0.00,CLR,SCT,0.00,0.0,WeatherDisplay:10.37,2013-02-19 11:48:00,
2013-02-19 05:53:00,9.3,-3.2,30.12,WSW,248,7.4,11.5,56,0.00,CLR,SCT,0.00,0.0,WeatherDisplay:10.37,2013-02-19 11:53:00,
2013-02-19 05:58:00,9.3,-3.2,30.12,NNE,22,8.5,11.5,56,0.00,CLR,SCT,0.00,0.0,WeatherDisplay:10.37,2013-02-19 11:58:00,
2013-02-19 06:03:00,9.3,-3.2,30.15,North,0,7.4,13.8,56,0.00,CLR,SCT,0.00,0.0,WeatherDisplay:10.37,2013-02-19 12:03:00,
2013-02-19 06:08:00,9.1,-3.4,30.15,ESE,112,6.4,10.7,56,0.00,CLR,SCT,0.00,0.0,WeatherDisplay:10.37,2013-02-19 12:08:00,
2013-02-19 06:13:00,9.1,-3.4,30.15,NNW,338,4.9,13.2,56,0.00,CLR,SCT,0.00,0.0,WeatherDisplay:10.37,2013-02-19 12:13:00,
2013-02-19 06:18:00,9.1,-3.4,30.15,NNE,22,6.4,9.2,56,0.00,CLR,SCT,0.00,0.0,WeatherDisplay:10.37,2013-02-19 12:18:00,
2013-02-19 06:23:00,9.1,-3.4,30.15,NNW,338,4.3,6.9,56,0.00,CLR,SCT,0.00,0.0,WeatherDisplay:10.37,2013-02-19 12:23:00,
2013-02-19 06:29:00,9.1,-3.4,30.15,WNW,292,6.0,6.9,56,0.00,CLR,SCT,0.00,0.0,WeatherDisplay:10.37,2013-02-19 12:29:00,
2013-02-19 06:34:00,9.1,-3.4,30.15,NNE,22,2.6,6.9,56,0.00,CLR,SCT,0.00,0.0,WeatherDisplay:10.37,2013-02-19 12:34:00,
2013-02-19 06:39:00,9.0,-3.6,30.15,WSW,248,6.2,9.2,56,0.00,CLR,SCT,0.00,0.0,WeatherDisplay:10.37,2013-02-19 12:39:00,
2013-02-19 06:44:00,8.8,-3.7,30.15,North,0,5.6,8.1,56,0.00,CLR,SCT,0.00,0.0,WeatherDisplay:10.37,2013-02-19 12:44:00,
2013-02-19 06:49:00,8.8,-3.7,30.18,NNE,22,6.0,10.7,56,0.00,CLR,SCT,0.00,0.0,WeatherDisplay:10.37,2013-02-19 12:49:00,
2013-02-19 06:54:00,8.8,-3.7,30.18,North,0,6.2,6.2,56,0.00,CLR,SCT,0.00,0.0,WeatherDisplay:10.37,2013-02-19 12:54:00,
2013-02-19 06:59:00,8.6,-3.9,30.18,North,0,4.5,8.1,56,0.00,CLR,SCT,0.00,0.0,WeatherDisplay:10.37,2013-02-19 12:59:00,
2013-02-19 07:04:00,8.6,-3.9,30.18,NNW,338,2.4,3.5,56,0.00,OVC,SCT,0.00,0.0,WeatherDisplay:10.37,2013-02-19 13:04:00,
2013-02-19 07:10:00,8.6,-3.9,30.18,NW,315,5.4,6.9,56,0.00,OVC,SCT,0.00,0.0,WeatherDisplay:10.37,2013-02-19 13:10:00,
2013-02-19 07:15:00,8.6,-3.9,30.18,NNW,346,5.0,8.0,56,0.00,OVC,SCT,0.00,0.0,WeatherDisplay:10.37,2013-02-19 13:15:00,
2013-02-19 07:20:00,8.6,-3.9,30.18,NNE,22,3.1,4.6,56,0.00,OVC,SCT,0.00,0.0,WeatherDisplay:10.37,2013-02-19 13:20:00,
2013-02-19 07:25:00,8.6,-3.9,30.18,SW,225,3.1,4.6,56,0.00,OVC,SCT,0.00,0.0,WeatherDisplay:10.37,2013-02-19 13:25:00,
2013-02-19 07:30:00,8.6,-3.9,30.21,NNE,22,2.9,3.5,56,0.00,OVC,SCT,0.00,0.0,WeatherDisplay:10.37,2013-02-19 13:30:00,
2013-02-19 07:35:00,8.6,-3.9,30.21,NNW,338,3.6,5.6,56,0.00,OVC,SCT,0.00,0.0,WeatherDisplay:10.37,2013-02-19 13:35:00,
2013-02-19 07:40:00,8.8,-3.7,30.21,NNW,338,7.6,9.2,56,0.00,OVC,SCT,0.00,0.0,WeatherDisplay:10.37,2013-02-19 13:40:00,
2013-02-19 07:45:00,9.0,-3.6,30.21,NW,315,7.1,10.4,56,0.00,OVC,SCT,0.00,0.0,WeatherDisplay:10.37,2013-02-19 13:45:00,
2013-02-19 07:50:00,9.1,-3.4,30.21,WNW,292,4.7,5.8,56,0.00,OVC,SCT,0.00,0.0,WeatherDisplay:10.37,2013-02-19 13:50:00,
2013-02-19 07:55:00,9.3,-3.2,30.21,North,0,4.7,8.7,56,0.00,OVC,SCT,0.00,0.0,WeatherDisplay:10.37,2013-02-19 13:55:00,
2013-02-19 08:00:00,9.5,-3.1,30.24,North,0,5.6,5.8,56,0.00,OVC,SCT,0.00,0.0,WeatherDisplay:10.37,2013-02-19 14:00:00,
2013-02-19 08:06:00,9.5,-3.1,30.24,North,0,4.7,5.8,56,0.00,OVC,SCT,0.00,0.0,WeatherDisplay:10.37,2013-02-19 14:06:00,
2013-02-19 08:11:00,9.5,-3.1,30.24,North,0,8.5,13.8,56,0.00,OVC,SCT,0.00,0.0,WeatherDisplay:10.37,2013-02-19 14:11:00,
2013-02-19 08:16:00,9.5,-3.1,30.24,NW,315,5.6,10.4,56,0.00,OVC,SCT,0.00,0.0,WeatherDisplay:10.37,2013-02-19 14:16:00,
2013-02-19 08:21:00,9.7,-2.9,30.24,NNW,338,4.5,4.6,56,0.00,OVC,SCT,0.00,0.0,WeatherDisplay:10.37,2013-02-19 14:21:00,
2013-02-19 08:26:00,9.7,-2.9,30.24,NNW,338,6.9,10.4,56,0.00,OVC,SCT,0.00,0.0,WeatherDisplay:10.37,2013-02-19 14:26:00,
2013-02-19 08:31:00,9.3,-3.2,30.24,North,0,9.7,12.7,56,0.00,OVC,SCT,0.00,0.0,WeatherDisplay:10.37,2013-02-19 14:31:00,
2013-02-19 08:36:00,9.3,-3.2,30.24,North,0,8.5,10.4,56,0.00,OVC,SCT,0.00,0.0,WeatherDisplay:10.37,2013-02-19 14:36:00,
2013-02-19 08:41:00,9.7,-2.9,30.24,NNW,338,6.9,11.5,56,0.00,OVC,SCT,0.00,0.0,WeatherDisplay:10.37,2013-02-19 14:41:00,
2013-02-19 08:46:00,9.9,-2.7,30.24,South,180,5.9,9.2,56,0.00,OVC,SCT,0.00,0.0,WeatherDisplay:10.37,2013-02-19 14:46:00,
2013-02-19 08:51:00,10.0,-2.6,30.24,WNW,292,5.6,9.2,56,0.00,OVC,SCT,0.00,0.0,WeatherDisplay:10.37,2013-02-19 14:51:00,
2013-02-19 08:56:00,10.2,-2.4,30.24,NW,315,4.5,8.1,56,0.00,OVC,SCT,0.00,0.0,WeatherDisplay:10.37,2013-02-19 14:56:00,
2013-02-19 09:02:00,10.0,-2.6,30.27,ESE,112,9.7,13.8,56,0.00,OVC,SCT,0.00,0.0,WeatherDisplay:10.37,2013-02-19 15:02:00,
2013-02-19 09:07:00,10.0,-2.6,30.27,NNW,338,7.8,14.7,56,0.00,OVC,SCT,0.00,0.0,WeatherDisplay:10.37,2013-02-19 15:07:00,
2013-02-19 09:12:00,10.2,-2.4,30.27,WNW,292,5.9,7.6,56,0.00,OVC,SCT,0.00,0.0,WeatherDisplay:10.37,2013-02-19 15:12:00,
2013-02-19 09:17:00,10.4,-2.2,30.27,NNE,22,8.1,15.0,56,0.00,OVC,SCT,0.00,0.0,WeatherDisplay:10.37,2013-02-19 15:17:00,
2013-02-19 09:22:00,10.6,-2.0,30.27,West,270,7.1,11.5,56,0.00,OVC,SCT,0.00,0.0,WeatherDisplay:10.37,2013-02-19 15:22:00,
2013-02-19 09:27:00,10.8,-1.9,30.27,NNE,22,7.6,13.8,56,0.00,OVC,SCT,0.00,0.0,WeatherDisplay:10.37,2013-02-19 15:27:00,
2013-02-19 09:32:00,11.1,-1.5,30.30,NNW,338,3.6,8.1,56,0.00,OVC,SCT,0.00,0.0,WeatherDisplay:10.37,2013-02-19 15:32:00,
2013-02-19 09:37:00,11.5,-1.2,30.30,NNW,338,5.9,12.1,56,0.00,OVC,SCT,0.00,0.0,WeatherDisplay:10.37,2013-02-19 15:37:00,
2013-02-19 09:42:00,11.5,-1.2,30.30,NNW,338,7.1,10.4,56,0.00,OVC,SCT,0.00,0.0,WeatherDisplay:10.37,2013-02-19 15:42:00,
2013-02-19 09:47:00,11.8,-0.9,30.30,SSE,158,6.4,13.8,56,0.00,OVC,SCT,0.00,0.0,WeatherDisplay:10.37,2013-02-19 15:47:00,
2013-02-19 09:52:00,12.0,-0.7,30.30,SW,225,7.6,11.5,56,0.00,OVC,SCT,0.00,0.0,WeatherDisplay:10.37,2013-02-19 15:52:00,
2013-02-19 09:57:00,12.2,-0.5,30.30,NNE,22,6.9,12.7,56,0.00,OVC,SCT,0.00,0.0,WeatherDisplay:10.37,2013-02-19 15:57:00,
2013-02-19 10:02:00,12.7,0.0,30.27,North,0,6.4,11.5,56,0.00,OVC,SCT,0.00,0.0,WeatherDisplay:10.37,2013-02-19 16:02:00,
2013-02-19 10:08:00,13.5,0.7,30.27,NNW,338,4.5,12.7,56,0.00,OVC,SCT,0.00,0.0,WeatherDisplay:10.37,2013-02-19 16:08:00,
2013-02-19 10:13:00,13.8,1.0,30.27,NNE,22,3.8,8.1,56,0.00,OVC,SCT,0.00,0.0,WeatherDisplay:10.37,2013-02-19 16:13:00,
2013-02-19 10:18:00,14.4,-3.6,30.27,East,90,3.6,3.6,44,0.00,OVC,SCT,0.00,100.0,WeatherDisplay:10.37,2013-02-19 16:18:00,
2013-02-19 10:23:00,14.4,-3.6,30.27,SW,225,4.0,9.2,44,0.00,OVC,SCT,0.00,100.0,WeatherDisplay:10.37,2013-02-19 16:23:00,
2013-02-19 10:28:00,14.7,-3.3,30.27,NNW,338,4.3,8.1,44,0.00,OVC,SCT,0.00,100.0,WeatherDisplay:10.37,2013-02-19 16:28:00,
2013-02-19 10:33:00,14.9,-3.1,30.30,North,0,5.9,6.9,44,0.00,OVC,SCT,0.00,100.0,WeatherDisplay:10.37,2013-02-19 16:33:00,
2013-02-19 10:38:00,15.1,-3.4,30.30,NNW,338,6.9,11.2,43,0.00,OVC,SCT,0.00,100.0,WeatherDisplay:10.37,2013-02-19 16:38:00,
2013-02-19 10:43:00,15.1,-3.9,30.30,WSW,248,6.9,10.4,42,0.00,OVC,SCT,0.00,100.0,WeatherDisplay:10.37,2013-02-19 16:43:00,
2013-02-19 10:48:00,15.6,-3.4,30.30,NNE,22,5.4,8.1,42,0.00,OVC,SCT,0.00,100.0,WeatherDisplay:10.37,2013-02-19 16:48:00,
2013-02-19 10:53:00,16.0,-3.6,30.30,NNW,338,4.9,11.5,41,0.00,OVC,SCT,0.00,100.0,WeatherDisplay:10.37,2013-02-19 16:53:00,
2013-02-19 10:58:00,16.2,-2.9,30.30,WNW,292,4.9,8.1,42,0.00,OVC,SCT,0.00,100.0,WeatherDisplay:10.37,2013-02-19 16:58:00,
2013-02-19 11:04:00,17.4,-1.3,30.30,NNW,338,4.3,8.1,43,0.00,OVC,SCT,0.00,100.0,WeatherDisplay:10.37,2013-02-19 17:04:00,
2013-02-19 11:09:00,17.6,-2.1,30.30,NW,315,7.1,9.2,41,0.00,OVC,SCT,0.00,100.0,WeatherDisplay:10.37,2013-02-19 17:09:00,
2013-02-19 11:14:00,17.8,-2.5,30.30,NNW,338,5.4,8.1,40,0.00,OVC,SCT,0.00,100.0,WeatherDisplay:10.37,2013-02-19 17:14:00,
2013-02-19 11:19:00,18.5,-1.8,30.30,NNE,22,4.3,5.9,40,0.00,OVC,SCT,0.00,100.0,WeatherDisplay:10.37,2013-02-19 17:19:00,
2013-02-19 11:24:00,19.0,-1.4,30.30,North,0,4.7,8.1,40,0.00,OVC,SCT,0.00,100.0,WeatherDisplay:10.37,2013-02-19 17:24:00,
2013-02-19 11:29:00,19.0,-2.4,30.30,NNW,338,8.1,9.2,38,0.00,OVC,SCT,0.00,100.0,WeatherDisplay:10.37,2013-02-19 17:29:00,
2013-02-19 11:34:00,19.2,-2.3,30.30,ESE,112,4.9,9.2,38,0.00,OVC,SCT,0.00,100.0,WeatherDisplay:10.37,2013-02-19 17:34:00,
2013-02-19 11:39:00,19.6,-2.0,30.30,NNW,338,5.4,12.7,38,0.00,OVC,SCT,0.00,100.0,WeatherDisplay:10.37,2013-02-19 17:39:00,
2013-02-19 11:44:00,19.9,-1.6,30.30,WNW,292,5.4,10.4,38,0.00,OVC,SCT,0.00,100.0,WeatherDisplay:10.37,2013-02-19 17:44:00,
2013-02-19 11:49:00,19.9,-2.2,30.30,NNE,22,7.8,11.5,37,0.00,OVC,SCT,0.00,100.0,WeatherDisplay:10.37,2013-02-19 17:49:00,
2013-02-19 11:54:00,20.1,-2.0,30.30,NNW,338,7.6,10.4,37,0.00,OVC,SCT,0.00,100.0,WeatherDisplay:10.37,2013-02-19 17:54:00,
2013-02-19 11:59:00,20.7,-1.5,30.30,WNW,292,4.7,10.0,37,0.00,OVC,SCT,0.00,100.0,WeatherDisplay:10.37,2013-02-19 17:59:00,
2013-02-19 12:05:00,21.0,-1.2,30.30,WSW,248,4.7,9.8,37,0.00,OVC,SCT,0.00,100.0,WeatherDisplay:10.37,2013-02-19 18:05:00,
2013-02-19 12:10:00,21.0,-1.8,30.30,WNW,292,6.9,12.7,36,0.00,OVC,SCT,0.00,100.0,WeatherDisplay:10.37,2013-02-19 18:10:00,
2013-02-19 12:15:00,21.7,-1.2,30.30,NW,321,3.0,13.0,36,0.00,OVC,SCT,0.00,100.0,WeatherDisplay:10.37,2013-02-19 18:15:00,
2013-02-19 12:20:00,22.1,-1.4,30.30,WNW,292,4.0,8.1,35,0.00,OVC,SCT,0.00,100.0,WeatherDisplay:10.37,2013-02-19 18:20:00,
2013-02-19 12:25:00,22.1,-0.8,30.30,WSW,248,4.5,9.2,36,0.00,OVC,SCT,0.00,100.0,WeatherDisplay:10.37,2013-02-19 18:25:00,
2013-02-19 12:30:00,22.3,-1.3,30.30,SSW,202,7.6,8.1,35,0.00,OVC,SCT,0.00,100.0,WeatherDisplay:10.37,2013-02-19 18:30:00,
2013-02-19 12:36:00,22.1,-1.4,30.30,WNW,292,6.2,10.4,35,0.00,OVC,SCT,0.00,100.0,WeatherDisplay:10.37,2013-02-19 18:36:00,
2013-02-19 12:41:00,22.5,-1.7,30.30,NNW,338,6.0,14.7,34,0.00,OVC,SCT,0.00,100.0,WeatherDisplay:10.37,2013-02-19 18:41:00,
2013-02-19 12:46:00,22.8,-1.4,30.30,NNW,338,4.7,10.4,34,0.00,OVC,SCT,0.00,100.0,WeatherDisplay:10.37,2013-02-19 18:46:00,
2013-02-19 12:51:00,23.5,-0.8,30.30,NNW,338,6.4,11.5,34,0.00,OVC,SCT,0.00,100.0,WeatherDisplay:10.37,2013-02-19 18:51:00,
2013-02-19 12:56:00,22.8,-2.0,30.30,WNW,292,7.4,10.4,33,0.00,OVC,SCT,0.00,100.0,WeatherDisplay:10.37,2013-02-19 18:56:00,
2013-02-19 13:01:00,23.2,-1.7,30.30,North,0,4.0,12.7,33,0.00,OVC,SCT,0.00,100.0,WeatherDisplay:10.37,2013-02-19 19:01:00,
2013-02-19 13:06:00,23.5,-1.4,30.30,NNW,338,4.9,8.1,33,0.00,OVC,SCT,0.00,100.0,WeatherDisplay:10.37,2013-02-19 19:06:00,
2013-02-19 13:11:00,23.2,-1.7,30.30,NNW,338,7.6,13.8,33,0.00,OVC,SCT,0.00,100.0,WeatherDisplay:10.37,2013-02-19 19:11:00,
2013-02-19 13:16:00,23.9,-1.1,30.27,NNW,338,4.3,5.8,33,0.00,OVC,SCT,0.00,100.0,WeatherDisplay:10.37,2013-02-19 19:16:00,
2013-02-19 13:21:00,24.6,-0.4,30.27,West,270,4.7,8.1,33,0.00,OVC,SCT,0.00,100.0,WeatherDisplay:10.37,2013-02-19 19:21:00,
2013-02-19 13:26:00,25.0,-0.8,30.27,NNW,338,3.6,9.2,32,0.00,OVC,SCT,0.00,100.0,WeatherDisplay:10.37,2013-02-19 19:26:00,
2013-02-19 13:31:00,25.2,-0.6,30.30,WNW,292,4.7,6.9,32,0.00,OVC,SCT,0.00,100.0,WeatherDisplay:10.37,2013-02-19 19:31:00,
2013-02-19 13:36:00,25.2,-0.6,30.30,North,0,6.2,6.2,32,0.00,OVC,SCT,0.00,100.0,WeatherDisplay:10.37,2013-02-19 19:36:00,
2013-02-19 13:41:00,25.0,-0.8,30.30,West,270,4.7,6.9,32,0.00,OVC,SCT,0.00,100.0,WeatherDisplay:10.37,2013-02-19 19:41:00,
2013-02-19 13:46:00,25.3,-0.5,30.27,WNW,292,6.7,8.7,32,0.00,OVC,SCT,0.00,100.0,WeatherDisplay:10.37,2013-02-19 19:46:00,
2013-02-19 13:51:00,25.2,-0.6,30.27,WNW,292,6.0,8.1,32,0.00,OVC,SCT,0.00,100.0,WeatherDisplay:10.37,2013-02-19 19:51:00,
2013-02-19 13:56:00,25.5,-0.3,30.27,ENE,68,7.6,10.4,32,0.00,OVC,SCT,0.00,100.0,WeatherDisplay:10.37,2013-02-19 19:56:00,
2013-02-19 14:01:00,25.3,-0.5,30.27,West,270,4.5,10.4,32,0.00,OVC,SCT,0.00,100.0,WeatherDisplay:10.37,2013-02-19 20:01:00,
2013-02-19 14:06:00,25.9,-0.7,30.27,WNW,292,6.2,10.7,31,0.00,OVC,SCT,0.00,100.0,WeatherDisplay:10.37,2013-02-19 20:06:00,
2013-02-19 14:11:00,25.9,-0.7,30.27,NNW,338,4.3,8.1,31,0.00,OVC,SCT,0.00,100.0,WeatherDisplay:10.37,2013-02-19 20:11:00,
2013-02-19 14:17:00,25.7,-0.8,30.27,WNW,292,6.4,9.2,31,0.00,OVC,SCT,0.00,100.0,WeatherDisplay:10.37,2013-02-19 20:17:00,
2013-02-19 14:22:00,25.9,-0.7,30.27,South,180,6.4,6.9,31,0.00,OVC,SCT,0.00,100.0,WeatherDisplay:10.37,2013-02-19 20:22:00,
2013-02-19 14:27:00,26.2,-0.3,30.27,North,0,4.5,8.1,31,0.00,OVC,SCT,0.00,100.0,WeatherDisplay:10.37,2013-02-19 20:27:00,
2013-02-19 14:32:00,26.4,0.5,30.27,North,0,4.9,10.4,32,0.00,OVC,SCT,0.00,100.0,WeatherDisplay:10.37,2013-02-19 20:32:00,
2013-02-19 14:37:00,26.8,0.1,30.27,SSW,202,4.5,9.2,31,0.00,OVC,SCT,0.00,100.0,WeatherDisplay:10.37,2013-02-19 20:37:00,
2013-02-19 14:42:00,26.8,0.1,30.27,South,180,6.2,10.4,31,0.00,OVC,SCT,0.00,0.0,WeatherDisplay:10.37,2013-02-19 20:42:00,
2013-02-19 14:47:00,27.0,0.3,30.27,WSW,248,4.7,8.1,31,0.00,OVC,SCT,0.00,0.0,WeatherDisplay:10.37,2013-02-19 20:47:00,
2013-02-19 14:52:00,27.0,0.3,30.27,WNW,292,7.6,10.0,31,0.00,OVC,SCT,0.00,0.0,WeatherDisplay:10.37,2013-02-19 20:52:00,
2013-02-19 14:57:00,27.0,0.3,30.27,North,0,4.5,6.9,31,0.00,OVC,SCT,0.00,0.0,WeatherDisplay:10.37,2013-02-19 20:57:00,
2013-02-19 15:02:00,26.6,0.0,30.27,NNW,338,5.9,9.2,31,0.00,OVC,SCT,0.00,0.0,WeatherDisplay:10.37,2013-02-19 21:02:00,
2013-02-19 15:07:00,27.5,0.8,30.27,NNE,22,5.6,9.2,31,0.00,OVC,SCT,0.00,0.0,WeatherDisplay:10.37,2013-02-19 21:07:00,
2013-02-19 15:12:00,27.5,0.8,30.27,WNW,292,4.3,5.8,31,0.00,OVC,SCT,0.00,0.0,WeatherDisplay:10.37,2013-02-19 21:12:00,
2013-02-19 15:17:00,27.5,-1.4,30.24,NNE,22,4.9,10.4,28,0.00,OVC,SCT,0.00,0.0,WeatherDisplay:10.37,2013-02-19 21:17:00,
2013-02-19 15:22:00,26.8,-3.6,30.24,North,0,8.1,15.0,26,0.00,OVC,SCT,0.00,0.0,WeatherDisplay:10.37,2013-02-19 21:22:00,
2013-02-19 15:27:00,27.0,-3.4,30.24,WNW,292,3.1,8.1,26,0.00,OVC,SCT,0.00,0.0,WeatherDisplay:10.37,2013-02-19 21:27:00,
2013-02-19 15:32:00,27.0,-3.4,30.24,WSW,248,6.9,8.1,26,0.00,OVC,SCT,0.00,0.0,WeatherDisplay:10.37,2013-02-19 21:32:00,
2013-02-19 15:38:00,27.1,-3.3,30.24,WNW,292,4.0,8.1,26,0.00,OVC,SCT,0.00,0.0,WeatherDisplay:10.37,2013-02-19 21:38:00,
2013-02-19 15:43:00,27.0,-3.4,30.24,NNW,338,4.5,8.1,26,0.00,OVC,SCT,0.00,0.0,WeatherDisplay:10.37,2013-02-19 21:43:00,
2013-02-19 15:48:00,27.0,-3.4,30.24,ESE,112,3.1,6.9,26,0.00,OVC,SCT,0.00,0.0,WeatherDisplay:10.37,2013-02-19 21:48:00,
2013-02-19 15:53:00,27.7,-2.8,30.24,NNE,22,3.1,6.9,26,0.00,OVC,SCT,0.00,0.0,WeatherDisplay:10.37,2013-02-19 21:53:00,
2013-02-19 15:58:00,27.9,-2.7,30.24,NNE,22,5.6,7.8,26,0.00,OVC,SCT,0.00,0.0,WeatherDisplay:10.37,2013-02-19 21:58:00,
2013-02-19 16:03:00,27.9,-2.7,30.24,West,270,2.9,4.6,26,0.00,OVC,SCT,0.00,0.0,WeatherDisplay:10.37,2013-02-19 22:03:00,
2013-02-19 16:08:00,27.9,-1.1,30.24,ENE,68,4.5,5.8,28,0.00,OVC,SCT,0.00,0.0,WeatherDisplay:10.37,2013-02-19 22:08:00,
2013-02-19 16:13:00,27.7,-1.2,30.24,South,180,3.8,5.8,28,0.00,OVC,SCT,0.00,0.0,WeatherDisplay:10.37,2013-02-19 22:13:00,
2013-02-19 16:18:00,27.3,-1.6,30.24,NNW,338,3.1,6.9,28,0.00,OVC,SCT,0.00,0.0,WeatherDisplay:10.37,2013-02-19 22:18:00,
2013-02-19 16:23:00,27.1,-1.7,30.24,NNW,338,4.0,6.9,28,0.00,OVC,SCT,0.00,0.0,WeatherDisplay:10.37,2013-02-19 22:23:00,
2013-02-19 16:28:00,27.1,-3.3,30.24,NNE,22,5.6,8.1,26,0.00,OVC,SCT,0.00,0.0,WeatherDisplay:10.37,2013-02-19 22:28:00,
2013-02-19 16:33:00,27.0,-3.4,30.24,WNW,292,4.3,6.9,26,0.00,OVC,SCT,0.00,0.0,WeatherDisplay:10.37,2013-02-19 22:33:00,
2013-02-19 16:39:00,26.8,-3.6,30.24,NNW,338,3.3,6.9,26,0.00,OVC,SCT,0.00,0.0,WeatherDisplay:10.37,2013-02-19 22:39:00,
2013-02-19 16:44:00,26.6,-3.7,30.24,NNW,338,5.9,9.2,26,0.00,OVC,SCT,0.00,0.0,WeatherDisplay:10.37,2013-02-19 22:44:00,
2013-02-19 16:49:00,26.4,-3.9,30.24,NNW,338,3.6,5.8,26,0.00,OVC,SCT,0.00,0.0,WeatherDisplay:10.37,2013-02-19 22:49:00,
2013-02-19 16:54:00,26.1,-4.2,30.24,NNW,338,6.2,8.1,26,0.00,OVC,SCT,0.00,0.0,WeatherDisplay:10.37,2013-02-19 22:54:00,
2013-02-19 16:59:00,25.9,-4.4,30.24,WNW,292,4.7,5.8,26,0.00,OVC,SCT,0.00,0.0,WeatherDisplay:10.37,2013-02-19 22:59:00,
2013-02-19 17:04:00,25.5,-4.7,30.24,North,0,3.3,4.7,26,0.00,OVC,SCT,0.00,0.0,WeatherDisplay:10.37,2013-02-19 23:04:00,
2013-02-19 17:09:00,25.7,-4.5,30.24,SSE,158,2.6,5.8,26,0.00,OVC,SCT,0.00,0.0,WeatherDisplay:10.37,2013-02-19 23:09:00,
2013-02-19 17:14:00,25.5,-4.7,30.24,South,180,3.3,8.1,26,0.00,OVC,SCT,0.00,0.0,WeatherDisplay:10.37,2013-02-19 23:14:00,
2013-02-19 17:19:00,25.3,-4.8,30.24,NNW,338,4.7,6.9,26,0.00,OVC,SCT,0.00,0.0,WeatherDisplay:10.37,2013-02-19 23:19:00,
2013-02-19 17:24:00,25.2,-5.0,30.24,NE,45,3.3,5.8,26,0.00,OVC,SCT,0.00,0.0,WeatherDisplay:10.37,2013-02-19 23:24:00,
2013-02-19 17:29:00,25.0,-5.1,30.24,NNE,22,1.6,5.8,26,0.00,OVC,SCT,0.00,0.0,WeatherDisplay:10.37,2013-02-19 23:29:00,
2013-02-19 17:34:00,24.8,-4.5,30.24,WNW,292,2.9,4.6,27,0.00,OVC,SCT,0.00,0.0,WeatherDisplay:10.37,2013-02-19 23:34:00,
2013-02-19 17:39:00,24.4,-4.8,30.24,ENE,68,2.9,8.1,27,0.00,OVC,SCT,0.00,0.0,WeatherDisplay:10.37,2013-02-19 23:39:00,
2013-02-19 17:45:00,24.3,-5.0,30.24,North,10,5.0,8.0,27,0.00,OVC,SCT,0.00,0.0,WeatherDisplay:10.37,2013-02-19 23:45:00,
2013-02-19 17:50:00,24.1,-5.1,30.24,NNW,338,2.9,8.5,27,0.00,OVC,SCT,0.00,0.0,WeatherDisplay:10.37,2013-02-19 23:50:00,
2013-02-19 17:55:00,23.4,-5.8,30.24,North,0,3.1,4.9,27,0.00,OVC,SCT,0.00,0.0,WeatherDisplay:10.37,2013-02-19 23:55:00,
2013-02-19 18:00:00,22.8,-6.2,30.24,West,270,2.4,5.8,27,0.00,OVC,SCT,0.00,0.0,WeatherDisplay:10.37,2013-02-20 00:00:00,
2013-02-19 18:05:00,22.3,-6.7,30.24,NNW,338,4.3,5.9,27,0.00,OVC,SCT,0.00,0.0,WeatherDisplay:10.37,2013-02-20 00:05:00,
2013-02-19 18:10:00,21.9,-7.0,30.24,NW,315,2.6,3.5,27,0.00,OVC,SCT,0.00,0.0,WeatherDisplay:10.37,2013-02-20 00:10:00,
2013-02-19 18:15:00,21.4,-7.5,30.24,NNE,22,4.0,5.8,27,0.00,OVC,SCT,0.00,0.0,WeatherDisplay:10.37,2013-02-20 00:15:00,
2013-02-19 18:20:00,21.0,-7.8,30.24,ESE,112,3.3,3.8,27,0.00,OVC,SCT,0.00,0.0,WeatherDisplay:10.37,2013-02-20 00:20:00,
2013-02-19 18:25:00,20.7,-8.1,30.24,NNW,338,2.9,5.8,27,0.00,OVC,SCT,0.00,0.0,WeatherDisplay:10.37,2013-02-20 00:25:00,
2013-02-19 18:30:00,20.3,-6.3,30.21,North,0,2.9,6.9,30,0.00,OVC,SCT,0.00,0.0,WeatherDisplay:10.37,2013-02-20 00:30:00,
2013-02-19 18:35:00,20.1,-6.4,30.21,North,0,3.6,6.9,30,0.00,CLR,SCT,0.00,0.0,WeatherDisplay:10.37,2013-02-20 00:35:00,
2013-02-19 18:40:00,19.9,-6.6,30.21,North,0,3.1,6.4,30,0.00,CLR,SCT,0.00,0.0,WeatherDisplay:10.37,2013-02-20 00:40:00,
2013-02-19 18:45:00,19.8,-6.7,30.24,NNW,338,2.0,3.5,30,0.00,CLR,SCT,0.00,0.0,WeatherDisplay:10.37,2013-02-20 00:45:00,
2013-02-19 18:50:00,19.4,-7.0,30.24,NNE,22,2.2,3.5,30,0.00,CLR,SCT,0.00,0.0,WeatherDisplay:10.37,2013-02-20 00:50:00,
2013-02-19 18:55:00,19.0,-5.4,30.24,NNW,338,3.3,4.9,33,0.00,CLR,SCT,0.00,0.0,WeatherDisplay:10.37,2013-02-20 00:55:00,
2013-02-19 19:00:00,18.9,-5.6,30.24,NNE,22,3.3,6.9,33,0.00,CLR,SCT,0.00,0.0,WeatherDisplay:10.37,2013-02-20 01:00:00,
2013-02-19 19:05:00,18.5,-5.9,30.24,ESE,112,3.3,4.6,33,0.00,CLR,SCT,0.00,0.0,WeatherDisplay:10.37,2013-02-20 01:05:00,
2013-02-19 19:11:00,18.3,-6.0,30.24,North,0,3.6,6.9,33,0.00,CLR,SCT,0.00,0.0,WeatherDisplay:10.37,2013-02-20 01:11:00,
2013-02-19 19:16:00,18.1,-6.2,30.21,NNE,22,2.9,4.6,33,0.00,CLR,SCT,0.00,0.0,WeatherDisplay:10.37,2013-02-20 01:16:00,
2013-02-19 19:21:00,17.8,-6.5,30.21,South,180,3.1,4.6,33,0.00,CLR,SCT,0.00,0.0,WeatherDisplay:10.37,2013-02-20 01:21:00,
2013-02-19 19:26:00,17.6,-6.1,30.21,North,0,2.4,3.5,34,0.00,CLR,SCT,0.00,0.0,WeatherDisplay:10.37,2013-02-20 01:26:00,
2013-02-19 19:31:00,17.4,-6.2,30.24,NNE,22,3.3,5.8,34,0.00,CLR,SCT,0.00,0.0,WeatherDisplay:10.37,2013-02-20 01:31:00,
2013-02-19 19:36:00,17.2,-6.4,30.24,North,0,5.6,6.9,34,0.00,CLR,SCT,0.00,0.0,WeatherDisplay:10.37,2013-02-20 01:36:00,
2013-02-19 19:41:00,17.1,-6.5,30.24,ENE,68,2.4,3.5,34,0.00,CLR,SCT,0.00,0.0,WeatherDisplay:10.37,2013-02-20 01:41:00,
2013-02-19 19:46:00,16.9,-6.7,30.27,NNW,338,3.6,3.8,34,0.00,CLR,SCT,0.00,0.0,WeatherDisplay:10.37,2013-02-20 01:46:00,
2013-02-19 19:51:00,16.7,-6.3,30.27,NNE,22,2.4,3.3,35,0.00,CLR,SCT,0.00,0.0,WeatherDisplay:10.37,2013-02-20 01:51:00,
2013-02-19 19:56:00,16.5,-6.4,30.27,NNW,338,2.9,3.5,35,0.00,CLR,SCT,0.00,0.0,WeatherDisplay:10.37,2013-02-20 01:56:00,
2013-02-19 20:01:00,16.2,-6.7,30.27,NNW,338,3.1,5.8,35,0.00,CLR,SCT,0.00,0.0,WeatherDisplay:10.37,2013-02-20 02:01:00,
2013-02-19 20:06:00,16.2,-6.7,30.27,SSE,158,3.1,3.5,35,0.00,CLR,SCT,0.00,0.0,WeatherDisplay:10.37,2013-02-20 02:06:00,
2013-02-19 20:11:00,16.0,-6.9,30.27,West,270,2.9,4.6,35,0.00,CLR,SCT,0.00,0.0,WeatherDisplay:10.37,2013-02-20 02:11:00,
2013-02-19 20:16:00,16.0,-6.3,30.27,SSW,202,3.8,6.9,36,0.00,CLR,SCT,0.00,0.0,WeatherDisplay:10.37,2013-02-20 02:16:00,
2013-02-19 20:22:00,15.8,-6.5,30.27,NNE,22,2.2,6.9,36,0.00,CLR,SCT,0.00,0.0,WeatherDisplay:10.37,2013-02-20 02:22:00,
2013-02-19 20:27:00,15.6,-6.6,30.27,NNW,338,2.6,4.6,36,0.00,CLR,SCT,0.00,0.0,WeatherDisplay:10.37,2013-02-20 02:27:00,
2013-02-19 20:32:00,15.4,-6.8,30.27,NE,45,3.1,4.6,36,0.00,CLR,SCT,0.00,0.0,WeatherDisplay:10.37,2013-02-20 02:32:00,
2013-02-19 20:37:00,15.3,-6.4,30.27,SE,135,3.6,5.8,37,0.00,CLR,SCT,0.00,0.0,WeatherDisplay:10.37,2013-02-20 02:37:00,
2013-02-19 20:42:00,15.1,-6.6,30.27,NNE,22,3.6,4.6,37,0.00,CLR,SCT,0.00,0.0,WeatherDisplay:10.37,2013-02-20 02:42:00,
2013-02-19 20:47:00,14.7,-6.3,30.27,NE,45,4.7,6.9,38,0.00,CLR,SCT,0.00,0.0,WeatherDisplay:10.37,2013-02-20 02:47:00,
2013-02-19 20:52:00,14.7,-6.3,30.27,North,0,3.3,8.1,38,0.00,CLR,SCT,0.00,0.0,WeatherDisplay:10.37,2013-02-20 02:52:00,
2013-02-19 20:57:00,14.4,-6.7,30.27,North,0,2.6,5.8,38,0.00,CLR,SCT,0.00,0.0,WeatherDisplay:10.37,2013-02-20 02:57:00,
2013-02-19 21:02:00,14.2,-6.3,30.27,WNW,292,2.4,3.5,39,0.00,CLR,SCT,0.00,0.0,WeatherDisplay:10.37,2013-02-20 03:02:00,
2013-02-19 21:07:00,14.0,-5.9,30.27,NNW,338,1.1,3.5,40,0.00,CLR,SCT,0.00,0.0,WeatherDisplay:10.37,2013-02-20 03:07:00,
2013-02-19 21:12:00,13.6,-6.3,30.27,NNE,22,1.1,2.3,40,0.00,CLR,SCT,0.00,0.0,WeatherDisplay:10.37,2013-02-20 03:12:00,
2013-02-19 21:17:00,13.5,-6.4,30.30,NNE,22,3.8,5.4,40,0.00,CLR,SCT,0.00,0.0,WeatherDisplay:10.37,2013-02-20 03:17:00,
2013-02-19 21:22:00,13.3,-6.6,30.30,NNW,338,2.2,4.6,40,0.00,CLR,SCT,0.00,0.0,WeatherDisplay:10.37,2013-02-20 03:22:00,
2013-02-19 21:27:00,13.1,-6.7,30.30,NNW,338,2.9,3.5,40,0.00,CLR,SCT,0.00,0.0,WeatherDisplay:10.37,2013-02-20 03:27:00,
2013-02-19 21:32:00,12.9,-6.9,30.30,North,0,3.3,4.9,40,0.00,CLR,SCT,0.00,0.0,WeatherDisplay:10.37,2013-02-20 03:32:00,
2013-02-19 21:37:00,12.7,-7.1,30.30,NNW,338,1.4,2.3,40,0.00,CLR,SCT,0.00,0.0,WeatherDisplay:10.37,2013-02-20 03:37:00,
2013-02-19 21:42:00,12.6,-7.2,30.30,SSW,202,1.6,2.3,40,0.00,CLR,SCT,0.00,0.0,WeatherDisplay:10.37,2013-02-20 03:42:00,
2013-02-19 21:47:00,12.4,-7.4,30.33,North,0,2.9,3.5,40,0.00,CLR,SCT,0.00,0.0,WeatherDisplay:10.37,2013-02-20 03:47:00,
2013-02-19 21:53:00,12.2,-7.6,30.33,NNW,338,1.6,2.3,40,0.00,CLR,SCT,0.00,0.0,WeatherDisplay:10.37,2013-02-20 03:53:00,
2013-02-19 21:58:00,12.0,-7.7,30.33,SSE,158,2.9,4.6,40,0.00,CLR,SCT,0.00,0.0,WeatherDisplay:10.37,2013-02-20 03:58:00,
2013-02-19 22:03:00,12.0,-7.7,30.27,WNW,292,1.4,2.3,40,0.00,CLR,SCT,0.00,0.0,WeatherDisplay:10.37,2013-02-20 04:03:00,
2013-02-19 22:08:00,11.8,-7.9,30.27,SSW,202,2.4,3.5,40,0.00,CLR,SCT,0.00,0.0,WeatherDisplay:10.37,2013-02-20 04:08:00,
2013-02-19 22:13:00,11.7,-8.1,30.27,North,0,2.6,4.7,40,0.00,CLR,SCT,0.00,0.0,WeatherDisplay:10.37,2013-02-20 04:13:00,
2013-02-19 22:18:00,11.7,-8.1,30.30,North,0,2.2,3.5,40,0.00,CLR,SCT,0.00,0.0,WeatherDisplay:10.37,2013-02-20 04:18:00,
2013-02-19 22:23:00,11.5,-8.2,30.30,WNW,292,0.9,2.3,40,0.00,CLR,SCT,0.00,0.0,WeatherDisplay:10.37,2013-02-20 04:23:00,
2013-02-19 22:28:00,11.3,-8.4,30.30,NW,315,1.1,2.3,40,0.00,CLR,SCT,0.00,0.0,WeatherDisplay:10.37,2013-02-20 04:28:00,
2013-02-19 22:33:00,11.1,-8.5,30.30,North,0,2.4,3.5,40,0.00,CLR,SCT,0.00,0.0,WeatherDisplay:10.37,2013-02-20 04:33:00,
2013-02-19 22:38:00,11.1,-8.5,30.30,NNE,22,1.6,3.5,40,0.00,CLR,SCT,0.00,0.0,WeatherDisplay:10.37,2013-02-20 04:38:00,
2013-02-19 22:43:00,10.9,-8.7,30.30,NNE,22,1.4,2.3,40,0.00,CLR,SCT,0.00,0.0,WeatherDisplay:10.37,2013-02-20 04:43:00,
2013-02-19 22:48:00,10.8,-8.9,30.30,NNW,338,1.6,3.5,40,0.00,CLR,SCT,0.00,0.0,WeatherDisplay:10.37,2013-02-20 04:48:00,
2013-02-19 22:53:00,10.6,-9.0,30.30,West,270,2.2,2.9,40,0.00,CLR,SCT,0.00,0.0,WeatherDisplay:10.37,2013-02-20 04:53:00,
2013-02-19 22:58:00,10.6,-9.0,30.30,WNW,292,2.0,2.3,40,0.00,CLR,SCT,0.00,0.0,WeatherDisplay:10.37,2013-02-20 04:58:00,
2013-02-19 23:00:00,10.6,-9.0,30.30,WNW,292,1.6,2.3,40,0.00,CLR,SCT,0.00,0.0,WeatherDisplay:10.37,2013-02-20 05:00:00,
2013-02-19 23:01:00,10.4,-9.2,30.30,NNW,338,2.0,2.3,40,0.00,CLR,SCT,0.00,0.0,WeatherDisplay:10.37,2013-02-20 05:01:00,
2013-02-19 23:04:00,10.4,-9.2,30.30,WNW,292,2.4,3.5,40,0.00,CLR,SCT,0.00,0.0,WeatherDisplay:10.37,2013-02-20 05:04:00,
2013-02-19 23:09:00,10.4,-9.2,30.30,NNW,338,1.1,3.5,40,0.00,CLR,SCT,0.00,0.0,WeatherDisplay:10.37,2013-02-20 05:09:00,
2013-02-19 23:14:00,10.2,-9.4,30.30,WNW,292,1.4,2.6,40,0.00,CLR,SCT,0.00,0.0,WeatherDisplay:10.37,2013-02-20 05:14:00,
2013-02-19 23:19:00,10.2,-9.4,30.33,NNE,22,2.6,3.6,40,0.00,CLR,SCT,0.00,0.0,WeatherDisplay:10.37,2013-02-20 05:19:00,
2013-02-19 23:24:00,10.0,-9.5,30.33,West,270,1.1,3.5,40,0.00,CLR,SCT,0.00,0.0,WeatherDisplay:10.37,2013-02-20 05:24:00,
2013-02-19 23:29:00,10.0,-9.5,30.33,North,0,2.4,4.6,40,0.00,CLR,SCT,0.00,0.0,WeatherDisplay:10.37,2013-02-20 05:29:00,
2013-02-19 23:34:00,9.7,-9.9,30.30,NNW,338,1.6,3.5,40,0.00,CLR,SCT,0.00,0.0,WeatherDisplay:10.37,2013-02-20 05:34:00,
2013-02-19 23:39:00,9.7,-9.9,30.30,North,0,2.4,3.5,40,0.00,CLR,SCT,0.00,0.0,WeatherDisplay:10.37,2013-02-20 05:39:00,
2013-02-19 23:45:00,9.5,-10.0,30.33,West,270,1.6,2.3,40,0.00,CLR,SCT,0.00,0.0,WeatherDisplay:10.37,2013-02-20 05:45:00,
2013-02-19 23:50:00,9.5,-10.0,30.33,ENE,68,1.6,2.3,40,0.00,CLR,SCT,0.00,0.0,WeatherDisplay:10.37,2013-02-20 05:50:00,
2013-02-19 23:55:00,9.3,-10.2,30.33,NNE,22,2.0,3.5,40,0.00,CLR,SCT,0.00,0.0,WeatherDisplay:10.37,2013-02-20 05:55:00,